sensor_id;sensor_type;location;lat;lon;timestamp;P1;durP1;ratioP1;P2;durP2;ratioP2
19521;SDS011;9905;52.126;5.596;2023-05-07T00:02:17;6.25;;;5.90;;
19521;SDS011;9905;52.126;5.596;2023-05-07T00:04:44;6.18;;;5.82;;
19521;SDS011;9905;52.126;5.596;2023-05-07T00:07:11;6.05;;;5.63;;
19521;SDS011;9905;52.126;5.596;2023-05-07T00:09:38;6.22;;;5.82;;
19521;SDS011;9905;52.126;5.596;2023-05-07T00:12:05;6.78;;;6.15;;
19521;SDS011;9905;52.126;5.596;2023-05-07T00:14:31;6.43;;;5.93;;
19521;SDS011;9905;52.126;5.596;2023-05-07T00:16:58;6.07;;;5.68;;
19521;SDS011;9905;52.126;5.596;2023-05-07T00:19:26;5.65;;;5.25;;
19521;SDS011;9905;52.126;5.596;2023-05-07T00:21:53;6.30;;;5.90;;
19521;SDS011;9905;52.126;5.596;2023-05-07T00:24:20;6.15;;;5.85;;
19521;SDS011;9905;52.126;5.596;2023-05-07T00:26:47;6.93;;;6.57;;
19521;SDS011;9905;52.126;5.596;2023-05-07T00:29:14;6.43;;;6.03;;
19521;SDS011;9905;52.126;5.596;2023-05-07T00:31:41;6.95;;;6.35;;
19521;SDS011;9905;52.126;5.596;2023-05-07T00:34:07;7.20;;;6.70;;
19521;SDS011;9905;52.126;5.596;2023-05-07T00:36:35;6.32;;;6.00;;
19521;SDS011;9905;52.126;5.596;2023-05-07T00:39:02;6.85;;;6.55;;
19521;SDS011;9905;52.126;5.596;2023-05-07T00:41:29;7.10;;;6.70;;
19521;SDS011;9905;52.126;5.596;2023-05-07T00:43:56;6.03;;;5.75;;
19521;SDS011;9905;52.126;5.596;2023-05-07T00:46:23;6.95;;;6.45;;
19521;SDS011;9905;52.126;5.596;2023-05-07T00:48:50;7.00;;;6.40;;
19521;SDS011;9905;52.126;5.596;2023-05-07T00:51:17;6.63;;;6.20;;
19521;SDS011;9905;52.126;5.596;2023-05-07T00:53:46;7.18;;;6.68;;
19521;SDS011;9905;52.126;5.596;2023-05-07T00:56:13;7.40;;;6.68;;
19521;SDS011;9905;52.126;5.596;2023-05-07T00:58:40;6.85;;;6.50;;
19521;SDS011;9905;52.126;5.596;2023-05-07T01:01:07;7.32;;;6.82;;
19521;SDS011;9905;52.126;5.596;2023-05-07T01:03:34;7.00;;;6.40;;
19521;SDS011;9905;52.126;5.596;2023-05-07T01:06:00;6.25;;;5.95;;
19521;SDS011;9905;52.126;5.596;2023-05-07T01:08:28;6.65;;;6.25;;
19521;SDS011;9905;52.126;5.596;2023-05-07T01:10:57;7.75;;;7.25;;
19521;SDS011;9905;52.126;5.596;2023-05-07T01:13:25;6.80;;;6.40;;
19521;SDS011;9905;52.126;5.596;2023-05-07T01:15:52;7.03;;;6.63;;
19521;SDS011;9905;52.126;5.596;2023-05-07T01:18:18;6.88;;;6.47;;
19521;SDS011;9905;52.126;5.596;2023-05-07T01:20:46;7.60;;;7.20;;
19521;SDS011;9905;52.126;5.596;2023-05-07T01:23:14;7.00;;;6.50;;
19521;SDS011;9905;52.126;5.596;2023-05-07T01:25:42;7.20;;;6.88;;
19521;SDS011;9905;52.126;5.596;2023-05-07T01:28:08;8.70;;;7.88;;
19521;SDS011;9905;52.126;5.596;2023-05-07T01:30:35;7.82;;;7.43;;
19521;SDS011;9905;52.126;5.596;2023-05-07T01:33:03;7.35;;;6.95;;
19521;SDS011;9905;52.126;5.596;2023-05-07T01:35:34;7.65;;;7.20;;
19521;SDS011;9905;52.126;5.596;2023-05-07T01:38:04;7.70;;;7.18;;
19521;SDS011;9905;52.126;5.596;2023-05-07T01:40:34;8.10;;;7.45;;
19521;SDS011;9905;52.126;5.596;2023-05-07T01:43:02;8.55;;;7.68;;
19521;SDS011;9905;52.126;5.596;2023-05-07T01:45:29;7.45;;;6.85;;
19521;SDS011;9905;52.126;5.596;2023-05-07T01:47:57;8.07;;;7.50;;
19521;SDS011;9905;52.126;5.596;2023-05-07T01:50:25;7.97;;;7.35;;
19521;SDS011;9905;52.126;5.596;2023-05-07T01:52:52;8.13;;;7.57;;
19521;SDS011;9905;52.126;5.596;2023-05-07T01:55:19;8.40;;;7.90;;
19521;SDS011;9905;52.126;5.596;2023-05-07T01:57:47;8.82;;;8.20;;
19521;SDS011;9905;52.126;5.596;2023-05-07T02:00:14;8.35;;;7.75;;
19521;SDS011;9905;52.126;5.596;2023-05-07T02:02:41;7.68;;;7.25;;
19521;SDS011;9905;52.126;5.596;2023-05-07T02:05:08;8.15;;;7.55;;
19521;SDS011;9905;52.126;5.596;2023-05-07T02:07:35;8.23;;;7.63;;
19521;SDS011;9905;52.126;5.596;2023-05-07T02:10:01;9.02;;;8.32;;
19521;SDS011;9905;52.126;5.596;2023-05-07T02:12:29;8.43;;;7.93;;
19521;SDS011;9905;52.126;5.596;2023-05-07T02:14:57;8.45;;;7.78;;
19521;SDS011;9905;52.126;5.596;2023-05-07T02:17:23;8.15;;;7.55;;
19521;SDS011;9905;52.126;5.596;2023-05-07T02:19:50;8.82;;;8.25;;
19521;SDS011;9905;52.126;5.596;2023-05-07T02:22:17;9.38;;;8.63;;
19521;SDS011;9905;52.126;5.596;2023-05-07T02:24:44;9.20;;;8.55;;
19521;SDS011;9905;52.126;5.596;2023-05-07T02:27:10;9.90;;;8.85;;
19521;SDS011;9905;52.126;5.596;2023-05-07T02:29:37;10.18;;;9.57;;
19521;SDS011;9905;52.126;5.596;2023-05-07T02:32:05;9.13;;;8.43;;
19521;SDS011;9905;52.126;5.596;2023-05-07T02:34:32;9.18;;;8.57;;
19521;SDS011;9905;52.126;5.596;2023-05-07T02:36:59;8.75;;;8.15;;
19521;SDS011;9905;52.126;5.596;2023-05-07T02:39:26;9.00;;;8.45;;
19521;SDS011;9905;52.126;5.596;2023-05-07T02:41:52;9.13;;;8.45;;
19521;SDS011;9905;52.126;5.596;2023-05-07T02:44:19;9.00;;;8.45;;
19521;SDS011;9905;52.126;5.596;2023-05-07T02:46:46;9.38;;;8.50;;
19521;SDS011;9905;52.126;5.596;2023-05-07T02:49:14;9.30;;;8.63;;
19521;SDS011;9905;52.126;5.596;2023-05-07T02:51:40;8.98;;;8.27;;
19521;SDS011;9905;52.126;5.596;2023-05-07T02:54:07;8.68;;;8.07;;
19521;SDS011;9905;52.126;5.596;2023-05-07T02:56:34;9.75;;;9.05;;
19521;SDS011;9905;52.126;5.596;2023-05-07T02:59:01;8.52;;;8.02;;
19521;SDS011;9905;52.126;5.596;2023-05-07T03:01:27;8.82;;;8.13;;
19521;SDS011;9905;52.126;5.596;2023-05-07T03:03:54;8.85;;;8.40;;
19521;SDS011;9905;52.126;5.596;2023-05-07T03:06:23;9.60;;;8.95;;
19521;SDS011;9905;52.126;5.596;2023-05-07T03:08:51;10.07;;;9.27;;
19521;SDS011;9905;52.126;5.596;2023-05-07T03:11:17;10.25;;;9.57;;
19521;SDS011;9905;52.126;5.596;2023-05-07T03:13:44;9.95;;;9.25;;
19521;SDS011;9905;52.126;5.596;2023-05-07T03:16:11;11.07;;;10.10;;
19521;SDS011;9905;52.126;5.596;2023-05-07T03:18:38;10.77;;;10.02;;
19521;SDS011;9905;52.126;5.596;2023-05-07T03:21:05;10.18;;;9.35;;
19521;SDS011;9905;52.126;5.596;2023-05-07T03:23:33;10.32;;;9.63;;
19521;SDS011;9905;52.126;5.596;2023-05-07T03:26:00;10.50;;;9.70;;
19521;SDS011;9905;52.126;5.596;2023-05-07T03:28:26;10.98;;;10.10;;
19521;SDS011;9905;52.126;5.596;2023-05-07T03:30:53;11.02;;;10.13;;
19521;SDS011;9905;52.126;5.596;2023-05-07T03:33:20;10.07;;;9.35;;
19521;SDS011;9905;52.126;5.596;2023-05-07T03:35:46;10.52;;;9.85;;
19521;SDS011;9905;52.126;5.596;2023-05-07T03:38:13;11.55;;;10.45;;
19521;SDS011;9905;52.126;5.596;2023-05-07T03:40:41;10.23;;;9.63;;
19521;SDS011;9905;52.126;5.596;2023-05-07T03:43:08;11.63;;;10.73;;
19521;SDS011;9905;52.126;5.596;2023-05-07T03:45:35;10.15;;;9.45;;
19521;SDS011;9905;52.126;5.596;2023-05-07T03:48:02;10.45;;;9.70;;
19521;SDS011;9905;52.126;5.596;2023-05-07T03:50:29;11.07;;;10.25;;
19521;SDS011;9905;52.126;5.596;2023-05-07T03:52:55;11.35;;;10.52;;
19521;SDS011;9905;52.126;5.596;2023-05-07T03:55:22;10.55;;;9.70;;
19521;SDS011;9905;52.126;5.596;2023-05-07T03:57:51;10.57;;;9.73;;
19521;SDS011;9905;52.126;5.596;2023-05-07T04:00:18;10.93;;;10.02;;
19521;SDS011;9905;52.126;5.596;2023-05-07T04:02:45;10.52;;;9.68;;
19521;SDS011;9905;52.126;5.596;2023-05-07T04:05:11;10.35;;;9.50;;
19521;SDS011;9905;52.126;5.596;2023-05-07T04:07:40;10.82;;;9.95;;
19521;SDS011;9905;52.126;5.596;2023-05-07T04:10:06;10.20;;;9.50;;
19521;SDS011;9905;52.126;5.596;2023-05-07T04:12:34;9.70;;;8.93;;
19521;SDS011;9905;52.126;5.596;2023-05-07T04:15:02;10.55;;;9.88;;
19521;SDS011;9905;52.126;5.596;2023-05-07T04:17:29;11.07;;;10.02;;
19521;SDS011;9905;52.126;5.596;2023-05-07T04:19:56;10.57;;;9.75;;
19521;SDS011;9905;52.126;5.596;2023-05-07T04:22:23;10.70;;;9.90;;
19521;SDS011;9905;52.126;5.596;2023-05-07T04:24:49;10.65;;;9.75;;
19521;SDS011;9905;52.126;5.596;2023-05-07T04:27:16;10.80;;;9.80;;
19521;SDS011;9905;52.126;5.596;2023-05-07T04:29:43;11.38;;;10.57;;
19521;SDS011;9905;52.126;5.596;2023-05-07T04:32:13;11.15;;;10.25;;
19521;SDS011;9905;52.126;5.596;2023-05-07T04:34:40;11.63;;;10.63;;
19521;SDS011;9905;52.126;5.596;2023-05-07T04:37:06;11.60;;;10.48;;
19521;SDS011;9905;52.126;5.596;2023-05-07T04:39:33;11.20;;;10.30;;
19521;SDS011;9905;52.126;5.596;2023-05-07T04:42:01;11.27;;;10.48;;
19521;SDS011;9905;52.126;5.596;2023-05-07T04:44:28;12.50;;;10.98;;
19521;SDS011;9905;52.126;5.596;2023-05-07T04:46:56;12.18;;;11.18;;
19521;SDS011;9905;52.126;5.596;2023-05-07T04:49:24;12.75;;;11.80;;
19521;SDS011;9905;52.126;5.596;2023-05-07T04:51:50;11.23;;;10.45;;
19521;SDS011;9905;52.126;5.596;2023-05-07T04:54:17;12.15;;;11.20;;
19521;SDS011;9905;52.126;5.596;2023-05-07T04:56:44;12.95;;;11.85;;
19521;SDS011;9905;52.126;5.596;2023-05-07T04:59:10;12.38;;;11.35;;
19521;SDS011;9905;52.126;5.596;2023-05-07T05:01:37;13.05;;;11.82;;
19521;SDS011;9905;52.126;5.596;2023-05-07T05:04:05;14.60;;;13.35;;
19521;SDS011;9905;52.126;5.596;2023-05-07T05:06:33;13.88;;;12.65;;
19521;SDS011;9905;52.126;5.596;2023-05-07T05:09:00;13.65;;;12.45;;
19521;SDS011;9905;52.126;5.596;2023-05-07T05:11:27;13.65;;;12.57;;
19521;SDS011;9905;52.126;5.596;2023-05-07T05:13:53;12.88;;;11.88;;
19521;SDS011;9905;52.126;5.596;2023-05-07T05:16:20;14.40;;;13.18;;
19521;SDS011;9905;52.126;5.596;2023-05-07T05:18:47;13.88;;;12.88;;
19521;SDS011;9905;52.126;5.596;2023-05-07T05:21:14;14.07;;;12.80;;
19521;SDS011;9905;52.126;5.596;2023-05-07T05:23:42;14.05;;;12.85;;
19521;SDS011;9905;52.126;5.596;2023-05-07T05:26:08;13.63;;;12.43;;
19521;SDS011;9905;52.126;5.596;2023-05-07T05:28:35;15.02;;;13.82;;
19521;SDS011;9905;52.126;5.596;2023-05-07T05:31:02;16.13;;;14.75;;
19521;SDS011;9905;52.126;5.596;2023-05-07T05:33:29;15.20;;;13.73;;
19521;SDS011;9905;52.126;5.596;2023-05-07T05:35:55;14.68;;;13.45;;
19521;SDS011;9905;52.126;5.596;2023-05-07T05:38:22;14.82;;;13.52;;
19521;SDS011;9905;52.126;5.596;2023-05-07T05:40:50;14.63;;;13.30;;
19521;SDS011;9905;52.126;5.596;2023-05-07T05:43:17;15.48;;;14.07;;
19521;SDS011;9905;52.126;5.596;2023-05-07T05:45:44;16.20;;;14.80;;
19521;SDS011;9905;52.126;5.596;2023-05-07T05:48:10;16.60;;;15.02;;
19521;SDS011;9905;52.126;5.596;2023-05-07T05:50:37;16.08;;;14.77;;
19521;SDS011;9905;52.126;5.596;2023-05-07T05:53:04;15.13;;;13.70;;
19521;SDS011;9905;52.126;5.596;2023-05-07T05:55:31;15.25;;;14.07;;
19521;SDS011;9905;52.126;5.596;2023-05-07T05:57:59;17.45;;;15.75;;
19521;SDS011;9905;52.126;5.596;2023-05-07T06:00:26;15.27;;;13.82;;
19521;SDS011;9905;52.126;5.596;2023-05-07T06:02:54;16.35;;;14.90;;
19521;SDS011;9905;52.126;5.596;2023-05-07T06:05:20;15.88;;;14.57;;
19521;SDS011;9905;52.126;5.596;2023-05-07T06:07:47;15.77;;;14.25;;
19521;SDS011;9905;52.126;5.596;2023-05-07T06:10:14;15.43;;;14.13;;
19521;SDS011;9905;52.126;5.596;2023-05-07T06:12:41;15.68;;;14.30;;
19521;SDS011;9905;52.126;5.596;2023-05-07T06:15:09;15.10;;;13.80;;
19521;SDS011;9905;52.126;5.596;2023-05-07T06:17:36;15.85;;;14.52;;
19521;SDS011;9905;52.126;5.596;2023-05-07T06:20:03;16.05;;;14.63;;
19521;SDS011;9905;52.126;5.596;2023-05-07T06:22:31;15.02;;;13.68;;
19521;SDS011;9905;52.126;5.596;2023-05-07T06:24:57;16.15;;;14.75;;
19521;SDS011;9905;52.126;5.596;2023-05-07T06:27:24;14.90;;;13.68;;
19521;SDS011;9905;52.126;5.596;2023-05-07T06:29:53;14.57;;;13.38;;
19521;SDS011;9905;52.126;5.596;2023-05-07T06:32:21;16.30;;;14.90;;
19521;SDS011;9905;52.126;5.596;2023-05-07T06:34:47;16.02;;;14.60;;
19521;SDS011;9905;52.126;5.596;2023-05-07T06:37:14;16.48;;;15.07;;
19521;SDS011;9905;52.126;5.596;2023-05-07T06:39:41;16.60;;;15.07;;
19521;SDS011;9905;52.126;5.596;2023-05-07T06:42:08;16.08;;;14.55;;
19521;SDS011;9905;52.126;5.596;2023-05-07T06:44:34;15.68;;;14.38;;
19521;SDS011;9905;52.126;5.596;2023-05-07T06:47:01;16.08;;;14.55;;
19521;SDS011;9905;52.126;5.596;2023-05-07T06:49:29;16.70;;;15.20;;
19521;SDS011;9905;52.126;5.596;2023-05-07T06:51:56;15.82;;;14.32;;
19521;SDS011;9905;52.126;5.596;2023-05-07T06:54:23;16.23;;;14.38;;
19521;SDS011;9905;52.126;5.596;2023-05-07T06:56:50;16.85;;;15.35;;
19521;SDS011;9905;52.126;5.596;2023-05-07T06:59:16;16.80;;;15.38;;
19521;SDS011;9905;52.126;5.596;2023-05-07T07:01:44;16.80;;;15.32;;
19521;SDS011;9905;52.126;5.596;2023-05-07T07:04:11;15.90;;;14.65;;
19521;SDS011;9905;52.126;5.596;2023-05-07T07:06:39;16.67;;;15.18;;
19521;SDS011;9905;52.126;5.596;2023-05-07T07:09:05;15.98;;;14.60;;
19521;SDS011;9905;52.126;5.596;2023-05-07T07:11:32;15.98;;;14.73;;
19521;SDS011;9905;52.126;5.596;2023-05-07T07:13:59;16.50;;;15.13;;
19521;SDS011;9905;52.126;5.596;2023-05-07T07:16:26;16.55;;;15.15;;
19521;SDS011;9905;52.126;5.596;2023-05-07T07:18:53;17.50;;;16.00;;
19521;SDS011;9905;52.126;5.596;2023-05-07T07:21:19;17.10;;;15.60;;
19521;SDS011;9905;52.126;5.596;2023-05-07T07:23:47;16.05;;;14.75;;
19521;SDS011;9905;52.126;5.596;2023-05-07T07:26:14;16.88;;;15.40;;
19521;SDS011;9905;52.126;5.596;2023-05-07T07:28:44;17.73;;;16.25;;
19521;SDS011;9905;52.126;5.596;2023-05-07T07:31:11;17.27;;;15.80;;
19521;SDS011;9905;52.126;5.596;2023-05-07T07:33:38;18.13;;;16.33;;
19521;SDS011;9905;52.126;5.596;2023-05-07T07:36:05;17.55;;;15.82;;
19521;SDS011;9905;52.126;5.596;2023-05-07T07:38:33;17.60;;;15.93;;
19521;SDS011;9905;52.126;5.596;2023-05-07T07:41:01;17.20;;;15.65;;
19521;SDS011;9905;52.126;5.596;2023-05-07T07:43:28;18.08;;;16.38;;
19521;SDS011;9905;52.126;5.596;2023-05-07T07:45:55;17.15;;;15.57;;
19521;SDS011;9905;52.126;5.596;2023-05-07T07:48:22;18.65;;;15.80;;
19521;SDS011;9905;52.126;5.596;2023-05-07T07:50:48;17.33;;;15.73;;
19521;SDS011;9905;52.126;5.596;2023-05-07T07:53:16;17.88;;;15.77;;
19521;SDS011;9905;52.126;5.596;2023-05-07T07:55:45;18.13;;;16.45;;
19521;SDS011;9905;52.126;5.596;2023-05-07T07:58:13;17.77;;;16.17;;
19521;SDS011;9905;52.126;5.596;2023-05-07T08:00:39;17.70;;;16.08;;
19521;SDS011;9905;52.126;5.596;2023-05-07T08:03:08;18.40;;;16.35;;
19521;SDS011;9905;52.126;5.596;2023-05-07T08:05:35;17.58;;;15.98;;
19521;SDS011;9905;52.126;5.596;2023-05-07T08:08:03;18.23;;;16.50;;
19521;SDS011;9905;52.126;5.596;2023-05-07T08:10:30;17.73;;;15.93;;
19521;SDS011;9905;52.126;5.596;2023-05-07T08:12:59;17.40;;;15.80;;
19521;SDS011;9905;52.126;5.596;2023-05-07T08:15:28;17.75;;;15.90;;
19521;SDS011;9905;52.126;5.596;2023-05-07T08:17:54;16.50;;;15.10;;
19521;SDS011;9905;52.126;5.596;2023-05-07T08:20:22;16.67;;;15.27;;
19521;SDS011;9905;52.126;5.596;2023-05-07T08:22:49;16.83;;;15.32;;
19521;SDS011;9905;52.126;5.596;2023-05-07T08:25:15;16.77;;;15.27;;
19521;SDS011;9905;52.126;5.596;2023-05-07T08:27:42;17.63;;;16.02;;
19521;SDS011;9905;52.126;5.596;2023-05-07T08:30:10;16.33;;;14.93;;
19521;SDS011;9905;52.126;5.596;2023-05-07T08:32:39;16.95;;;15.10;;
19521;SDS011;9905;52.126;5.596;2023-05-07T08:35:06;16.58;;;15.27;;
19521;SDS011;9905;52.126;5.596;2023-05-07T08:37:33;16.38;;;14.77;;
19521;SDS011;9905;52.126;5.596;2023-05-07T08:40:00;17.38;;;15.65;;
19521;SDS011;9905;52.126;5.596;2023-05-07T08:42:27;16.75;;;15.25;;
19521;SDS011;9905;52.126;5.596;2023-05-07T08:44:55;16.95;;;15.25;;
19521;SDS011;9905;52.126;5.596;2023-05-07T08:47:29;17.20;;;15.65;;
19521;SDS011;9905;52.126;5.596;2023-05-07T08:50:02;17.58;;;15.90;;
19521;SDS011;9905;52.126;5.596;2023-05-07T08:52:29;17.08;;;15.55;;
19521;SDS011;9905;52.126;5.596;2023-05-07T08:54:56;16.55;;;15.13;;
19521;SDS011;9905;52.126;5.596;2023-05-07T08:57:23;17.15;;;15.50;;
19521;SDS011;9905;52.126;5.596;2023-05-07T08:59:50;17.40;;;15.77;;
19521;SDS011;9905;52.126;5.596;2023-05-07T09:02:16;18.73;;;16.95;;
19521;SDS011;9905;52.126;5.596;2023-05-07T09:04:43;18.27;;;16.40;;
19521;SDS011;9905;52.126;5.596;2023-05-07T09:07:11;18.52;;;16.63;;
19521;SDS011;9905;52.126;5.596;2023-05-07T09:09:38;18.67;;;16.83;;
19521;SDS011;9905;52.126;5.596;2023-05-07T09:12:05;17.60;;;16.00;;
19521;SDS011;9905;52.126;5.596;2023-05-07T09:14:32;18.05;;;16.15;;
19521;SDS011;9905;52.126;5.596;2023-05-07T09:16:59;19.38;;;17.48;;
19521;SDS011;9905;52.126;5.596;2023-05-07T09:19:26;19.98;;;17.98;;
19521;SDS011;9905;52.126;5.596;2023-05-07T09:21:59;19.60;;;17.60;;
19521;SDS011;9905;52.126;5.596;2023-05-07T09:24:28;21.33;;;19.23;;
19521;SDS011;9905;52.126;5.596;2023-05-07T09:26:59;19.70;;;17.58;;
19521;SDS011;9905;52.126;5.596;2023-05-07T09:29:26;21.10;;;17.95;;
19521;SDS011;9905;52.126;5.596;2023-05-07T09:31:53;19.25;;;17.42;;
19521;SDS011;9905;52.126;5.596;2023-05-07T09:34:20;18.25;;;16.40;;
19521;SDS011;9905;52.126;5.596;2023-05-07T09:36:47;17.92;;;16.15;;
19521;SDS011;9905;52.126;5.596;2023-05-07T09:39:14;18.60;;;16.35;;
19521;SDS011;9905;52.126;5.596;2023-05-07T09:41:45;18.35;;;16.45;;
19521;SDS011;9905;52.126;5.596;2023-05-07T09:44:12;17.58;;;15.50;;
19521;SDS011;9905;52.126;5.596;2023-05-07T09:46:41;19.20;;;16.90;;
19521;SDS011;9905;52.126;5.596;2023-05-07T09:49:10;17.23;;;15.43;;
19521;SDS011;9905;52.126;5.596;2023-05-07T09:51:43;17.77;;;16.00;;
19521;SDS011;9905;52.126;5.596;2023-05-07T09:54:14;16.92;;;15.13;;
19521;SDS011;9905;52.126;5.596;2023-05-07T09:56:42;18.10;;;16.23;;
19521;SDS011;9905;52.126;5.596;2023-05-07T09:59:11;16.65;;;15.05;;
19521;SDS011;9905;52.126;5.596;2023-05-07T10:01:41;16.67;;;14.93;;
19521;SDS011;9905;52.126;5.596;2023-05-07T10:04:08;17.85;;;16.15;;
19521;SDS011;9905;52.126;5.596;2023-05-07T10:06:36;17.15;;;15.55;;
19521;SDS011;9905;52.126;5.596;2023-05-07T10:09:04;17.08;;;15.30;;
19521;SDS011;9905;52.126;5.596;2023-05-07T10:11:32;17.00;;;15.40;;
19521;SDS011;9905;52.126;5.596;2023-05-07T10:13:59;15.48;;;14.07;;
19521;SDS011;9905;52.126;5.596;2023-05-07T10:16:28;16.92;;;15.27;;
19521;SDS011;9905;52.126;5.596;2023-05-07T10:18:57;15.93;;;14.43;;
19521;SDS011;9905;52.126;5.596;2023-05-07T10:21:24;18.70;;;14.90;;
19521;SDS011;9905;52.126;5.596;2023-05-07T10:23:55;15.73;;;14.32;;
19521;SDS011;9905;52.126;5.596;2023-05-07T10:26:24;15.95;;;14.20;;
19521;SDS011;9905;52.126;5.596;2023-05-07T10:28:54;16.02;;;14.40;;
19521;SDS011;9905;52.126;5.596;2023-05-07T10:31:38;14.00;;;12.75;;
19521;SDS011;9905;52.126;5.596;2023-05-07T10:34:17;15.02;;;13.52;;
19521;SDS011;9905;52.126;5.596;2023-05-07T10:36:49;14.98;;;13.70;;
19521;SDS011;9905;52.126;5.596;2023-05-07T10:39:16;16.27;;;14.73;;
19521;SDS011;9905;52.126;5.596;2023-05-07T10:41:45;15.85;;;14.27;;
19521;SDS011;9905;52.126;5.596;2023-05-07T10:44:12;16.17;;;14.68;;
19521;SDS011;9905;52.126;5.596;2023-05-07T10:47:04;15.95;;;14.55;;
19521;SDS011;9905;52.126;5.596;2023-05-07T10:49:33;17.70;;;15.80;;
19521;SDS011;9905;52.126;5.596;2023-05-07T10:52:13;17.42;;;15.73;;
19521;SDS011;9905;52.126;5.596;2023-05-07T10:54:41;17.08;;;15.27;;
19521;SDS011;9905;52.126;5.596;2023-05-07T11:00:04;17.17;;;15.35;;
19521;SDS011;9905;52.126;5.596;2023-05-07T11:03:08;16.20;;;14.73;;
19521;SDS011;9905;52.126;5.596;2023-05-07T11:05:35;17.20;;;15.50;;
19521;SDS011;9905;52.126;5.596;2023-05-07T11:08:02;15.90;;;14.38;;
19521;SDS011;9905;52.126;5.596;2023-05-07T11:13:18;15.82;;;14.25;;
19521;SDS011;9905;52.126;5.596;2023-05-07T11:16:15;14.82;;;13.50;;
19521;SDS011;9905;52.126;5.596;2023-05-07T11:18:48;16.20;;;14.82;;
19521;SDS011;9905;52.126;5.596;2023-05-07T11:21:32;15.57;;;14.07;;
19521;SDS011;9905;52.126;5.596;2023-05-07T11:24:00;14.93;;;13.52;;
19521;SDS011;9905;52.126;5.596;2023-05-07T11:26:29;15.95;;;13.55;;
19521;SDS011;9905;52.126;5.596;2023-05-07T11:28:57;16.10;;;14.05;;
19521;SDS011;9905;52.126;5.596;2023-05-07T11:31:26;14.43;;;13.30;;
19521;SDS011;9905;52.126;5.596;2023-05-07T11:33:56;14.90;;;13.40;;
19521;SDS011;9905;52.126;5.596;2023-05-07T11:36:23;14.85;;;13.55;;
19521;SDS011;9905;52.126;5.596;2023-05-07T11:38:51;14.55;;;13.32;;
19521;SDS011;9905;52.126;5.596;2023-05-07T11:41:17;14.45;;;13.15;;
19521;SDS011;9905;52.126;5.596;2023-05-07T11:43:53;14.27;;;12.98;;
19521;SDS011;9905;52.126;5.596;2023-05-07T11:46:21;14.65;;;13.35;;
19521;SDS011;9905;52.126;5.596;2023-05-07T11:48:48;12.63;;;11.50;;
19521;SDS011;9905;52.126;5.596;2023-05-07T11:51:19;12.77;;;11.02;;
19521;SDS011;9905;52.126;5.596;2023-05-07T11:53:47;12.98;;;11.73;;
19521;SDS011;9905;52.126;5.596;2023-05-07T11:56:15;13.48;;;12.38;;
19521;SDS011;9905;52.126;5.596;2023-05-07T11:58:44;13.43;;;12.20;;
19521;SDS011;9905;52.126;5.596;2023-05-07T12:01:12;14.23;;;13.02;;
19521;SDS011;9905;52.126;5.596;2023-05-07T12:03:40;13.93;;;12.63;;
19521;SDS011;9905;52.126;5.596;2023-05-07T12:06:09;14.00;;;12.10;;
19521;SDS011;9905;52.126;5.596;2023-05-07T12:08:37;14.02;;;12.82;;
19521;SDS011;9905;52.126;5.596;2023-05-07T12:11:06;14.55;;;13.25;;
19521;SDS011;9905;52.126;5.596;2023-05-07T12:13:34;12.85;;;11.75;;
19521;SDS011;9905;52.126;5.596;2023-05-07T12:16:01;13.35;;;11.90;;
19521;SDS011;9905;52.126;5.596;2023-05-07T12:18:29;14.10;;;12.90;;
19521;SDS011;9905;52.126;5.596;2023-05-07T12:20:56;16.33;;;14.75;;
19521;SDS011;9905;52.126;5.596;2023-05-07T12:23:25;13.57;;;12.38;;
19521;SDS011;9905;52.126;5.596;2023-05-07T12:25:53;14.35;;;12.95;;
19521;SDS011;9905;52.126;5.596;2023-05-07T12:28:20;14.05;;;12.65;;
19521;SDS011;9905;52.126;5.596;2023-05-07T12:30:47;13.95;;;12.65;;
19521;SDS011;9905;52.126;5.596;2023-05-07T12:33:16;13.52;;;12.32;;
19521;SDS011;9905;52.126;5.596;2023-05-07T12:35:46;13.77;;;12.57;;
19521;SDS011;9905;52.126;5.596;2023-05-07T12:38:14;13.32;;;12.15;;
19521;SDS011;9905;52.126;5.596;2023-05-07T12:40:43;13.75;;;12.45;;
19521;SDS011;9905;52.126;5.596;2023-05-07T12:43:16;14.82;;;13.35;;
19521;SDS011;9905;52.126;5.596;2023-05-07T12:45:44;14.27;;;12.90;;
19521;SDS011;9905;52.126;5.596;2023-05-07T12:48:12;13.80;;;12.38;;
19521;SDS011;9905;52.126;5.596;2023-05-07T12:50:39;13.27;;;12.07;;
19521;SDS011;9905;52.126;5.596;2023-05-07T12:53:06;13.23;;;12.05;;
19521;SDS011;9905;52.126;5.596;2023-05-07T12:55:40;15.10;;;13.60;;
19521;SDS011;9905;52.126;5.596;2023-05-07T12:58:08;14.40;;;13.05;;
19521;SDS011;9905;52.126;5.596;2023-05-07T13:00:42;14.18;;;13.05;;
19521;SDS011;9905;52.126;5.596;2023-05-07T13:03:10;14.60;;;13.40;;
19521;SDS011;9905;52.126;5.596;2023-05-07T13:05:37;13.45;;;12.25;;
19521;SDS011;9905;52.126;5.596;2023-05-07T13:08:04;15.35;;;13.82;;
19521;SDS011;9905;52.126;5.596;2023-05-07T13:10:30;13.52;;;12.15;;
19521;SDS011;9905;52.126;5.596;2023-05-07T13:12:59;13.38;;;12.07;;
19521;SDS011;9905;52.126;5.596;2023-05-07T13:15:25;13.40;;;12.18;;
19521;SDS011;9905;52.126;5.596;2023-05-07T13:17:54;12.82;;;11.63;;
19521;SDS011;9905;52.126;5.596;2023-05-07T13:20:21;12.07;;;10.98;;
19521;SDS011;9905;52.126;5.596;2023-05-07T13:22:48;12.68;;;11.60;;
19521;SDS011;9905;52.126;5.596;2023-05-07T13:25:14;11.95;;;10.82;;
19521;SDS011;9905;52.126;5.596;2023-05-07T13:27:41;10.93;;;10.02;;
19521;SDS011;9905;52.126;5.596;2023-05-07T13:30:08;10.85;;;9.27;;
19521;SDS011;9905;52.126;5.596;2023-05-07T13:32:35;10.65;;;9.75;;
19521;SDS011;9905;52.126;5.596;2023-05-07T13:35:03;9.27;;;8.63;;
19521;SDS011;9905;52.126;5.596;2023-05-07T13:37:31;10.25;;;9.35;;
19521;SDS011;9905;52.126;5.596;2023-05-07T13:39:57;9.45;;;8.70;;
19521;SDS011;9905;52.126;5.596;2023-05-07T13:42:24;9.85;;;9.05;;
19521;SDS011;9905;52.126;5.596;2023-05-07T13:44:51;10.27;;;9.38;;
19521;SDS011;9905;52.126;5.596;2023-05-07T13:47:18;10.32;;;9.40;;
19521;SDS011;9905;52.126;5.596;2023-05-07T13:49:44;9.27;;;8.50;;
19521;SDS011;9905;52.126;5.596;2023-05-07T13:52:15;10.88;;;9.98;;
19521;SDS011;9905;52.126;5.596;2023-05-07T13:54:42;10.75;;;9.52;;
19521;SDS011;9905;52.126;5.596;2023-05-07T13:57:09;10.45;;;9.55;;
19521;SDS011;9905;52.126;5.596;2023-05-07T13:59:35;9.85;;;9.05;;
19521;SDS011;9905;52.126;5.596;2023-05-07T14:02:02;10.00;;;9.20;;
19521;SDS011;9905;52.126;5.596;2023-05-07T14:04:30;10.52;;;9.60;;
19521;SDS011;9905;52.126;5.596;2023-05-07T14:06:57;10.90;;;9.88;;
19521;SDS011;9905;52.126;5.596;2023-05-07T14:09:25;12.75;;;11.55;;
19521;SDS011;9905;52.126;5.596;2023-05-07T14:11:51;11.82;;;10.73;;
19521;SDS011;9905;52.126;5.596;2023-05-07T14:14:18;10.73;;;9.82;;
19521;SDS011;9905;52.126;5.596;2023-05-07T14:16:45;10.95;;;10.15;;
19521;SDS011;9905;52.126;5.596;2023-05-07T14:19:12;11.35;;;10.32;;
19521;SDS011;9905;52.126;5.596;2023-05-07T14:21:39;10.73;;;9.82;;
19521;SDS011;9905;52.126;5.596;2023-05-07T14:24:06;11.35;;;10.23;;
19521;SDS011;9905;52.126;5.596;2023-05-07T14:26:35;10.63;;;9.75;;
19521;SDS011;9905;52.126;5.596;2023-05-07T14:29:01;10.50;;;9.55;;
19521;SDS011;9905;52.126;5.596;2023-05-07T14:31:28;9.35;;;8.68;;
19521;SDS011;9905;52.126;5.596;2023-05-07T14:33:55;10.55;;;9.57;;
19521;SDS011;9905;52.126;5.596;2023-05-07T14:36:23;10.82;;;9.93;;
19521;SDS011;9905;52.126;5.596;2023-05-07T14:38:51;10.80;;;9.77;;
19521;SDS011;9905;52.126;5.596;2023-05-07T14:41:18;11.68;;;10.55;;
19521;SDS011;9905;52.126;5.596;2023-05-07T14:43:47;10.10;;;9.25;;
19521;SDS011;9905;52.126;5.596;2023-05-07T14:46:15;10.35;;;9.35;;
19521;SDS011;9905;52.126;5.596;2023-05-07T14:48:43;9.65;;;8.95;;
19521;SDS011;9905;52.126;5.596;2023-05-07T14:51:10;9.27;;;8.57;;
19521;SDS011;9905;52.126;5.596;2023-05-07T14:53:37;10.80;;;9.50;;